Time;durP1;ratioP1;P1;durP2;ratioP2;P2;SDS_P1;SDS_P2;PMS_P1;PMS_P2;Temp;Humidity;BMP_temperature;BMP_pressure;BME280_temperature;BME280_humidity;BME280_pressure;Samples;Min_cycle;Max_cycle;Signal;HPM_P1;HPM_P2
2022/05/19 06:23:09;;;;;;;;;11.67;11.33;;;;;25.57;100.00;100201.28;6373084;22;46695;-93
2022/05/19 07:01:07;;;;;;;;;10.00;10.00;;;;;25.92;100.00;100240.72;6383489;22;45450;-93
2022/05/19 07:04:14;;;;;;;;;12.00;12.00;;;;;25.83;100.00;100239.16;6368873;22;45517;-93
2022/05/19 07:10:01;;;;;;;;;11.67;11.33;;;;;25.78;100.00;100240.16;6397170;22;46251;-93
2022/05/19 07:12:38;;;;;;;;;11.33;10.00;;;;;25.80;100.00;100245.50;6370474;22;45324;-93
2022/05/19 07:15:15;;;;;;;;;12.33;11.67;;;;;25.82;100.00;100249.00;6369963;22;45273;-95
2022/05/19 07:18:03;;;;;;;;;17.67;12.67;;;;;25.73;100.00;100238.47;6365296;22;45474;-95
2022/05/19 07:21:15;;;;;;;;;13.67;13.67;;;;;25.69;100.00;100239.50;6361219;22;47656;-94
2022/05/19 07:24:20;;;;;;;;;;;;;;;;;;;;;
2022/05/19 07:30:16;;;;;;;;;13.00;12.00;;;;;25.64;100.00;100219.00;6151187;22;45505;-93
2022/05/19 07:32:42;;;;;;;;;17.33;13.67;;;;;25.73;100.00;100228.66;6180008;22;47947;-92
2022/05/19 07:35:11;;;;;;;;;11.33;9.67;;;;;25.84;100.00;100238.25;6183491;22;45571;-96
2022/05/19 07:37:37;;;;;;;;;14.00;13.00;;;;;26.00;100.00;100252.16;6185312;22;45442;-96
2022/05/19 07:40:12;;;;;;;;;15.00;12.00;;;;;26.09;100.00;100248.31;6188648;22;45461;-96
2022/05/19 07:42:38;;;;;;;;;13.00;13.00;;;;;26.19;100.00;100265.06;6190309;22;46731;-85
2022/05/19 07:45:05;;;;;;;;;11.00;11.00;;;;;26.30;100.00;100267.47;6208308;22;45354;-86
2022/05/19 07:47:31;;;;;;;;;13.00;11.67;;;;;26.42;100.00;100269.78;6202569;22;45461;-85
2022/05/19 07:49:56;;;;;;;;;15.00;15.00;;;;;26.53;100.00;100285.66;6206250;22;45482;-86
2022/05/19 07:52:22;;;;;;;;;14.33;12.67;;;;;26.61;100.00;100289.94;6205686;22;45391;-87
2022/05/19 07:54:48;;;;;;;;;11.67;11.67;;;;;26.72;100.00;100301.28;6206758;22;45279;-86
2022/05/19 07:57:14;;;;;;;;;13.00;12.00;;;;;26.90;100.00;100331.28;6206019;22;45386;-85
2022/05/19 07:59:39;;;;;;;;;11.33;11.33;;;;;27.07;100.00;100330.75;6206161;22;45445;-84
2022/05/19 08:02:05;;;;;;;;;13.33;11.00;;;;;27.19;100.00;100342.97;6209738;22;46095;-85
2022/05/19 08:04:31;;;;;;;;;8.33;8.33;;;;;27.29;100.00;100357.03;6237339;22;45369;-83
2022/05/19 08:06:56;;;;;;;;;10.00;9.67;;;;;27.29;100.00;100373.19;6349887;22;45371;-83
2022/05/19 08:12:06;;;;;;;;;11.67;8.33;;;;;27.27;100.00;100388.53;6397614;22;45726;-83
2022/05/19 08:17:17;;;;;;;;;8.67;7.00;;;;;27.42;100.00;100413.25;6395618;22;45398;-84
2022/05/19 08:19:46;;;;;;;;;8.33;8.33;;;;;27.40;100.00;100436.66;6397785;22;45461;-81
2022/05/19 08:22:12;;;;;;;;;10.00;9.00;;;;;27.48;100.00;100441.81;6396560;22;46206;-83
2022/05/19 08:24:40;;;;;;;;;12.00;8.67;;;;;27.57;100.00;100444.25;6369758;22;45394;-83
2022/05/19 08:27:06;;;;;;;;;8.00;8.00;;;;;27.70;100.00;100471.69;6368554;22;45319;-82
2022/05/19 08:29:31;;;;;;;;;6.33;6.33;;;;;27.82;100.00;100477.66;6397808;22;45361;-83
2022/05/19 08:31:59;;;;;;;;;13.00;10.00;;;;;27.91;100.00;100487.28;6370688;22;46273;-82
2022/05/19 08:34:24;;;;;;;;;9.00;7.33;;;;;28.03;100.00;100505.75;6403223;22;45458;-81
2022/05/19 08:36:50;;;;;;;;;10.00;7.00;;;;;28.12;100.00;100520.75;6373313;22;45296;-83
2022/05/19 08:39:18;;;;;;;;;9.67;7.00;;;;;28.15;100.00;100515.25;6401588;22;45520;-83
2022/05/19 08:41:50;;;;;;;;;9.67;7.33;;;;;28.19;100.00;100518.75;6402432;22;46194;-85
2022/05/19 08:44:45;;;;;;;;;9.00;6.33;;;;;28.32;100.00;100530.03;6380448;22;45648;-92
2022/05/19 08:47:14;;;;;;;;;6.67;5.00;;;;;28.50;100.00;100536.63;6387158;22;45228;-94
2022/05/19 08:49:47;;;;;;;;;5.33;4.00;;;;;28.69;100.00;100549.50;6415795;22;45290;-94
2022/05/19 08:52:20;;;;;;;;;5.33;5.33;;;;;28.83;100.00;100546.34;6418815;22;45544;-94
2022/05/19 08:54:49;;;;;;;;;5.33;5.33;;;;;28.92;100.00;100566.72;6415780;22;45243;-96
2022/05/19 08:57:24;;;;;;;;;6.00;5.33;;;;;28.93;100.00;100570.31;6363699;22;45130;-95
2022/05/19 09:00:02;;;;;;;;;7.00;5.00;;;;;28.95;100.00;100588.25;6415172;22;45166;-95
2022/05/19 09:02:38;;;;;;;;;5.33;4.00;;;;;29.07;100.00;100602.28;6415148;22;45560;-96
2022/05/19 09:05:39;;;;;;;;;5.67;5.33;;;;;29.27;100.00;100614.22;6385230;22;45312;-96
2022/05/19 09:08:29;;;;;;;;;6.33;5.33;;;;;29.45;100.00;100639.69;6320386;22;45580;-96
2022/05/19 09:11:15;;;;;;;;;6.33;5.33;;;;;29.52;100.00;100662.88;6316386;22;45407;-96
2022/05/19 09:14:00;;;;;;;;;5.67;5.67;;;;;29.48;100.00;100706.28;6321412;22;46567;-94
2022/05/19 09:16:33;;;;;;;;;6.00;6.00;;;;;29.35;100.00;100722.94;6320626;22;45510;-93
2022/05/19 09:19:06;;;;;;;;;10.00;9.67;;;;;29.18;100.00;100732.50;6344832;22;44867;-93
2022/05/19 09:21:37;;;;;;;;;12.33;11.33;;;;;28.88;100.00;100719.94;6331658;22;45330;-89
2022/05/19 09:57:51;;;;;;;;;2.00;2.00;;;;;36.31;95.90;101239.41;6350965;22;46491;-94
2022/05/19 10:00:19;;;;;;;;;3.33;3.33;;;;;36.52;89.88;101347.63;6361688;22;45979;-94
2022/05/19 10:05:23;;;;;;;;;4.33;4.00;;;;;35.74;87.00;101366.28;6403982;22;46824;-92
2022/05/19 10:13:09;;;;;;;;;1.67;1.00;;;;;35.03;83.83;101401.56;6419525;22;45842;-92
2022/05/19 10:16:03;;;;;;;;;0.33;0.33;;;;;35.82;83.61;101388.59;6398310;22;46395;-92
2022/05/19 10:21:41;;;;;;;;;3.00;2.00;;;;;38.92;81.26;101470.44;6392064;22;45860;-91
2022/05/19 10:53:12;;;;;;;;;1.00;1.00;;;;;35.15;73.35;101488.28;6390912;22;44783;-92
2022/05/19 10:55:41;;;;;;;;;0.33;0.33;;;;;35.18;73.92;101499.03;6389188;22;44780;-90
2022/05/19 10:58:31;;;;;;;;;1.00;1.00;;;;;34.84;73.30;101503.31;6357816;22;47472;-93
2022/05/19 11:01:10;;;;;;;;;1.00;0.00;;;;;34.30;73.37;101496.59;6389919;22;45010;-90
2022/05/19 11:06:39;;;;;;;;;1.00;1.00;;;;;34.83;75.26;101472.44;6385565;22;46576;-96
2022/05/19 11:22:09;;;;;;;;;14.00;14.00;;;;;41.59;69.36;101545.72;6394494;22;46051;-89
2022/05/19 11:27:42;;;;;;;;;5.00;3.33;;;;;41.32;66.21;101566.94;6396851;22;45386;-90
2022/05/19 11:30:14;;;;;;;;;0.00;0.00;;;;;43.10;67.24;101561.72;6363626;22;46975;-89
2022/05/19 11:32:42;;;;;;;;;0.67;0.67;;;;;44.89;65.58;101549.44;6418608;22;45217;-89
2022/05/19 11:35:20;;;;;;;;;8.33;7.00;;;;;46.49;62.42;101561.63;6331247;22;45199;-88
2022/05/19 11:38:06;;;;;;;;;1.00;1.00;;;;;48.26;60.52;101580.22;6407563;22;45366;-90
2022/05/19 11:40:39;;;;;;;;;3.67;3.67;;;;;50.13;58.65;101581.66;6412544;22;46491;-91
2022/05/19 11:43:16;;;;;;;;;2.33;2.33;;;;;51.66;54.91;101590.19;6392546;22;44694;-90
2022/05/19 11:45:52;;;;;;;;;4.00;4.00;;;;;53.25;53.22;101602.63;6392946;22;45729;-92
2022/05/19 11:55:12;;;;;;;;;1.00;1.00;;;;;52.31;45.86;101640.25;6417299;22;45180;-93
2022/05/19 11:57:47;;;;;;;;;0.00;0.00;;;;;53.14;45.28;101648.81;6261604;22;45680;-94
2022/05/19 12:00:21;;;;;;;;;0.33;0.33;;;;;53.19;44.41;101649.09;6290537;22;45531;-95
2022/05/19 12:05:26;;;;;;;;;0.00;0.00;;;;;54.58;43.33;101657.66;6354026;22;45525;-94
2022/05/19 12:07:56;;;;;;;;;0.00;0.00;;;;;53.09;41.60;101652.22;6335435;22;45265;-93
2022/05/19 12:10:33;;;;;;;;;0.00;0.00;;;;;51.07;41.51;101657.56;6334572;22;44813;-94
2022/05/19 12:13:00;;;;;;;;;0.00;0.00;;;;;49.25;41.48;101666.47;6332973;22;47039;-93
2022/05/19 12:15:36;;;;;;;;;1.00;0.00;;;;;49.57;43.00;101656.50;6329382;22;44844;-93
2022/05/19 12:18:20;;;;;;;;;0.00;0.00;;;;;51.42;43.08;101666.50;6343434;22;45572;-93
2022/05/19 12:20:52;;;;;;;;;0.00;0.00;;;;;53.24;43.39;101670.97;6356876;22;45338;-92
2022/05/19 12:23:17;;;;;;;;;0.00;0.00;;;;;54.70;41.82;101666.38;6357237;22;47128;-93
2022/05/19 12:25:48;;;;;;;;;0.00;0.00;;;;;55.59;41.40;101662.06;6350671;22;44741;-93
2022/05/19 12:28:14;;;;;;;;;0.00;0.00;;;;;56.65;40.18;101676.69;6353645;22;44730;-94
2022/05/19 12:34:00;;;;;;;;;1.67;0.00;;;;;58.59;38.69;101673.13;6362154;22;44895;-94
2022/05/19 12:36:41;;;;;;;;;1.00;0.00;;;;;59.10;37.05;101670.13;6334104;22;45875;-93
2022/05/19 12:39:17;;;;;;;;;0.67;0.67;;;;;59.15;36.88;101677.97;6360331;22;44686;-93
2022/05/19 12:41:48;;;;;;;;;0.00;0.00;;;;;59.74;36.11;101676.50;6361416;22;45344;-93
2022/05/19 12:44:35;;;;;;;;;1.00;0.00;;;;;60.29;35.97;101678.41;6362097;22;48445;-94
2022/05/19 12:47:10;;;;;;;;;0.67;0.67;;;;;60.70;35.00;101675.66;6357523;22;44738;-93
2022/05/19 12:49:36;;;;;;;;;0.00;0.00;;;;;61.04;34.15;101672.16;6386611;22;45240;-93
2022/05/19 12:52:13;;;;;;;;;0.00;0.00;;;;;61.38;33.35;101676.22;6385570;22;44975;-95
2022/05/19 12:55:12;;;;;;;;;0.00;0.00;;;;;61.68;33.32;101675.06;6351681;22;47442;-94
2022/05/19 12:57:38;;;;;;;;;0.00;0.00;;;;;61.97;32.46;101672.16;6363583;22;45323;-94
2022/05/19 13:00:09;;;;;;;;;0.00;0.00;;;;;62.17;32.59;101685.00;6348030;22;45299;-94
2022/05/19 13:03:04;;;;;;;;;0.00;0.00;;;;;62.34;31.83;101681.28;6346248;22;45004;-94
2022/05/19 13:05:37;;;;;;;;;0.67;0.00;;;;;62.56;31.22;101681.31;6343328;22;46341;-94
2022/05/19 13:08:10;;;;;;;;;0.00;0.00;;;;;62.68;31.25;101678.31;6347605;22;45240;-94
2022/05/19 13:10:55;;;;;;;;;0.00;0.00;;;;;62.79;30.86;101676.50;6347663;22;45267;-96
2022/05/19 13:13:27;;;;;;;;;0.00;0.00;;;;;62.86;30.94;101679.16;6368214;22;45355;-94
2022/05/19 13:15:58;;;;;;;;;0.67;0.00;;;;;62.90;30.12;101677.50;6354305;22;46962;-95
2022/05/19 13:18:31;;;;;;;;;0.00;0.00;;;;;61.93;30.27;101685.19;6373741;22;45135;-95
2022/05/19 13:21:11;;;;;;;;;0.00;0.00;;;;;60.98;30.26;101670.34;6348623;22;45166;-94
2022/05/19 13:23:40;;;;;;;;;0.00;0.00;;;;;61.21;30.36;101671.34;6340715;22;45298;-95
2022/05/19 13:26:39;;;;;;;;;0.00;0.00;;;;;61.66;30.49;101669.66;6351716;22;45435;-95
2022/05/19 13:32:04;;;;;;;;;0.00;0.00;;;;;62.29;30.39;101673.53;6267499;22;45228;-95
2022/05/19 13:34:46;;;;;;;;;1.00;1.00;;;;;62.46;30.09;101676.34;6241776;22;44810;-96
2022/05/19 13:37:12;;;;;;;;;0.00;0.00;;;;;62.49;29.41;101679.78;6223712;22;47513;-92
2022/05/19 13:39:38;;;;;;;;;0.00;0.00;;;;;62.68;29.66;101675.47;6224622;22;45302;-92
2022/05/19 13:42:08;;;;;;;;;0.00;0.00;;;;;63.01;29.68;101672.78;6261982;22;44655;-92
2022/05/19 13:44:42;;;;;;;;;0.00;0.00;;;;;63.17;29.58;101678.69;6233808;22;44817;-94
2022/05/19 13:47:21;;;;;;;;;0.00;0.00;;;;;63.35;29.49;101683.13;6222509;22;45333;-93
2022/05/19 13:49:58;;;;;;;;;0.00;0.00;;;;;63.38;29.40;101670.34;6251783;22;45334;-94
2022/05/19 13:52:28;;;;;;;;;0.50;0.50;;;;;63.43;29.12;101678.09;6231061;22;45319;-93
2022/05/19 13:54:54;;;;;;;;;0.00;0.00;;;;;63.48;28.57;101669.63;6223767;22;45380;-94
2022/05/19 13:57:19;;;;;;;;;0.00;0.00;;;;;63.61;28.19;101678.81;6244306;22;45993;-94
2022/05/19 13:59:46;;;;;;;;;0.00;0.00;;;;;63.53;28.70;101677.34;6249376;22;45397;-92
2022/05/19 14:02:21;;;;;;;;;0.00;0.00;;;;;63.53;28.71;101680.19;6252457;22;45355;-95
2022/05/19 14:04:48;;;;;;;;;0.00;0.00;;;;;63.39;28.70;101679.75;6304151;22;45486;-93
2022/05/19 14:07:17;;;;;;;;;0.00;0.00;;;;;63.27;28.80;101682.75;6339910;22;46987;-94
2022/05/19 14:09:54;;;;;;;;;0.00;0.00;;;;;63.23;28.68;101671.91;6333632;22;45421;-95
2022/05/19 14:12:20;;;;;;;;;0.25;0.25;;;;;63.11;28.48;101666.38;6332619;22;45328;-95
2022/05/19 14:15:04;;;;;;;;;0.75;0.75;;;;;62.83;28.47;101667.44;6333432;22;45409;-95
2022/05/19 14:17:34;;;;;;;;;0.00;0.00;;;;;62.38;28.13;101673.06;6347041;22;46554;-96
2022/05/19 14:20:03;;;;;;;;;0.50;0.50;;;;;62.00;28.93;101674.50;6398968;22;45291;-95
2022/05/19 14:22:30;;;;;;;;;0.50;0.50;;;;;61.48;28.58;101662.22;6374144;22;45262;-93
2022/05/19 14:25:09;;;;;;;;;1.00;1.00;;;;;60.19;28.86;101670.50;6375176;22;45545;-93
2022/05/19 14:27:38;;;;;;;;;1.00;1.00;;;;;58.91;29.21;101670.19;6406752;22;45745;-96
2022/05/19 14:30:08;;;;;;;;;1.00;1.00;;;;;57.85;29.67;101660.50;6403321;22;45296;-93
2022/05/19 14:32:43;;;;;;;;;0.25;0.25;;;;;57.55;30.50;101664.88;6375525;22;45232;-96
2022/05/19 14:37:52;;;;;;;;;0.50;0.50;;;;;58.25;30.38;101659.38;6383354;22;46321;-93
2022/05/19 14:43:23;;;;;;;;;1.00;1.00;;;;;59.19;30.03;101647.22;6364870;22;45330;-94
2022/05/19 14:45:53;;;;;;;;;0.00;0.00;;;;;59.46;30.16;101649.69;6366379;22;45284;-93
2022/05/19 14:48:33;;;;;;;;;1.00;1.00;;;;;59.12;29.86;101651.03;6366095;22;45665;-94
2022/05/19 14:51:01;;;;;;;;;1.00;1.00;;;;;57.94;30.04;101639.41;6365131;22;45774;-95
2022/05/19 14:53:27;;;;;;;;;1.50;0.00;;;;;55.69;30.07;101625.09;6366159;22;45501;-94
2022/05/19 14:56:06;;;;;;;;;0.75;0.75;;;;;53.01;31.23;101627.09;6364915;22;45548;-94
2022/05/19 14:58:55;;;;;;;;;0.00;0.00;;;;;50.60;32.89;101618.22;6368780;22;46940;-94
2022/05/19 15:01:21;;;;;;;;;0.00;0.00;;;;;48.31;34.70;101619.56;6358323;22;45315;-93
2022/05/19 15:03:47;;;;;;;;;0.00;0.00;;;;;46.52;35.93;101619.59;6387943;22;44652;-93
2022/05/19 15:06:15;;;;;;;;;0.00;0.00;;;;;44.90;36.72;101623.16;6388223;22;45331;-94
2022/05/19 15:08:46;;;;;;;;;0.00;0.00;;;;;43.49;38.03;101623.97;6410515;22;46519;-92
2022/05/19 15:11:11;;;;;;;;;0.00;0.00;;;;;42.20;40.06;101604.53;6410794;22;45371;-95
2022/05/19 15:13:38;;;;;;;;;0.33;0.33;;;;;41.25;40.96;101608.78;6382835;22;45455;-92
2022/05/19 15:16:04;;;;;;;;;0.00;0.00;;;;;40.47;42.03;101606.84;6372985;22;45442;-93
2022/05/19 15:18:29;;;;;;;;;1.00;1.00;;;;;39.76;42.96;101611.53;6368322;22;46299;-93
2022/05/19 15:20:54;;;;;;;;;0.00;0.00;;;;;39.09;44.29;101608.44;6397238;22;45678;-93
2022/05/19 15:23:20;;;;;;;;;0.67;0.67;;;;;38.50;44.76;101604.69;6376236;22;45629;-93
2022/05/19 15:25:46;;;;;;;;;1.00;1.00;;;;;37.88;46.02;101600.00;6397150;22;45405;-94
2022/05/19 15:30:49;;;;;;;;;1.00;1.00;;;;;37.00;48.19;101607.53;6400675;22;45699;-92
2022/05/19 15:33:16;;;;;;;;;1.00;1.00;;;;;36.55;49.20;101587.97;6333320;22;45584;-92
2022/05/19 15:35:43;;;;;;;;;1.00;1.00;;;;;36.20;49.90;101595.19;6363866;22;44785;-90
2022/05/19 15:38:12;;;;;;;;;1.33;1.33;;;;;35.83;50.78;101588.78;6360114;22;46738;-91
2022/05/19 15:40:38;;;;;;;;;0.67;0.67;;;;;35.41;52.33;101584.38;6350196;22;45258;-92
2022/05/19 15:43:03;;;;;;;;;1.33;1.33;;;;;35.05;52.30;101574.22;6354313;22;44997;-93
2022/05/19 15:48:05;;;;;;;;;1.00;1.00;;;;;34.31;53.78;101566.47;6355685;22;45169;-93
2022/05/19 15:50:42;;;;;;;;;3.00;2.00;;;;;34.02;54.51;101572.16;6291672;22;45295;-93
2022/05/19 15:53:09;;;;;;;;;2.00;2.00;;;;;33.70;55.55;101555.31;6322848;22;45897;-92
2022/05/19 15:55:36;;;;;;;;;4.00;4.00;;;;;33.50;55.98;101557.88;6323183;22;45368;-93
2022/05/19 15:58:01;;;;;;;;;2.33;2.33;;;;;33.29;56.95;101546.00;6350192;22;46142;-93
2022/05/19 16:05:37;;;;;;;;;2.00;2.00;;;;;32.61;58.93;101531.19;6397877;22;45201;-93
2022/05/19 16:08:04;;;;;;;;;2.33;2.33;;;;;32.32;59.31;101526.75;6408977;22;46440;-93
2022/05/19 16:10:30;;;;;;;;;1.33;1.33;;;;;32.11;60.55;101502.09;6412926;22;45274;-93
2022/05/19 16:12:55;;;;;;;;;2.33;2.33;;;;;31.92;60.92;101511.78;6414269;22;45118;-92
2022/05/19 16:15:22;;;;;;;;;3.33;2.00;;;;;31.73;61.98;101501.53;6416648;22;45481;-95
2022/05/19 16:17:48;;;;;;;;;5.00;4.00;;;;;31.61;62.23;101502.81;6413291;22;47014;-96
2022/05/19 16:20:16;;;;;;;;;3.33;2.67;;;;;31.57;63.03;101496.59;6359087;22;45352;-92
2022/05/19 16:22:46;;;;;;;;;3.00;2.33;;;;;31.55;63.44;101484.91;6414451;22;45546;-92
2022/05/19 16:25:21;;;;;;;;;3.00;3.00;;;;;31.58;63.79;101482.09;6384866;22;45516;-93
2022/05/19 16:27:47;;;;;;;;;3.00;3.00;;;;;31.51;64.14;101481.41;6387540;22;47068;-93
2022/05/19 16:30:14;;;;;;;;;2.67;2.67;;;;;31.48;64.41;101467.03;6412100;22;45365;-91
2022/05/19 16:32:39;;;;;;;;;3.67;2.33;;;;;31.44;64.14;101480.69;6385476;22;45454;-94
2022/05/19 16:35:05;;;;;;;;;3.00;3.00;;;;;31.38;64.62;101471.84;6386503;22;45529;-94
2022/05/19 16:37:33;;;;;;;;;5.00;5.00;;;;;31.26;64.47;101468.59;6415351;22;47413;-94
2022/05/19 16:40:00;;;;;;;;;3.33;3.33;;;;;31.13;65.21;101470.81;6413578;22;45288;-93
2022/05/19 16:42:30;;;;;;;;;4.33;4.33;;;;;30.92;65.46;101467.78;6408956;22;45395;-93
2022/05/19 16:44:55;;;;;;;;;4.33;4.00;;;;;30.71;66.20;101453.03;6409739;22;45308;-90
2022/05/19 16:47:23;;;;;;;;;5.67;5.67;;;;;30.56;65.92;101468.78;6381290;22;47442;-94
2022/05/19 16:49:49;;;;;;;;;3.00;3.00;;;;;30.36;66.15;101458.50;6385224;22;45180;-95
2022/05/19 16:52:15;;;;;;;;;3.67;3.67;;;;;30.15;66.92;101434.66;6412149;22;45377;-94
2022/05/19 16:57:48;;;;;;;;;3.00;3.00;;;;;29.86;67.44;101431.78;6414430;22;45792;-92
2022/05/19 17:00:16;;;;;;;;;2.00;2.00;;;;;29.71;68.23;101419.53;6385391;22;44745;-92
2022/05/19 17:02:42;;;;;;;;;2.67;2.67;;;;;29.55;69.01;101395.53;6405823;22;45410;-94
2022/05/19 17:05:12;;;;;;;;;4.00;4.00;;;;;29.48;69.04;101399.31;6387398;22;45573;-94
2022/05/19 17:07:38;;;;;;;;;4.00;4.00;;;;;29.38;69.27;101387.81;6426638;22;46844;-95
2022/05/19 17:10:07;;;;;;;;;4.00;4.00;;;;;29.21;69.44;101363.91;6427025;22;44743;-93
2022/05/19 17:12:32;;;;;;;;;3.33;3.33;;;;;29.18;70.37;101356.75;6426199;22;44754;-93
2022/05/19 17:14:58;;;;;;;;;5.00;4.67;;;;;29.06;70.25;101357.00;6424401;22;45273;-94
2022/05/19 17:17:24;;;;;;;;;4.00;4.00;;;;;29.00;70.26;101353.53;6385890;22;45207;-93
2022/05/19 17:19:49;;;;;;;;;2.00;2.00;;;;;28.93;70.92;101351.00;6386624;22;45160;-92
2022/05/19 17:22:15;;;;;;;;;3.33;3.33;;;;;28.78;71.03;101329.72;6412936;22;45217;-95
2022/05/19 17:24:41;;;;;;;;;3.33;3.33;;;;;28.72;71.30;101337.03;6415393;22;45233;-94
2022/05/19 17:27:10;;;;;;;;;5.00;4.00;;;;;28.65;71.50;101333.59;6414591;22;46557;-96
2022/05/19 17:29:36;;;;;;;;;4.33;4.33;;;;;28.55;71.81;101325.69;6385508;22;45098;-96
2022/05/19 17:32:02;;;;;;;;;2.33;2.33;;;;;28.52;72.14;101311.38;6380109;22;45367;-96
2022/05/19 17:34:28;;;;;;;;;4.00;4.00;;;;;28.50;72.84;101300.59;6409780;22;45462;-92
2022/05/19 17:36:53;;;;;;;;;5.00;2.00;;;;;28.51;72.83;101307.78;6409928;22;46992;-90
2022/05/19 17:39:18;;;;;;;;;5.67;5.67;;;;;28.54;72.83;101301.41;6406979;22;45591;-90
2022/05/19 17:41:43;;;;;;;;;5.00;4.00;;;;;28.54;72.92;101304.13;6403497;22;45581;-92
2022/05/19 17:44:09;;;;;;;;;6.67;6.00;;;;;28.55;72.84;101314.88;6402231;22;45278;-90
2022/05/19 17:46:37;;;;;;;;;5.33;5.33;;;;;28.60;73.23;101312.09;6378910;22;47236;-90
2022/05/19 17:49:04;;;;;;;;;4.00;4.00;;;;;28.59;73.05;101322.91;6382206;22;45387;-91
2022/05/19 17:51:31;;;;;;;;;9.00;9.00;;;;;28.58;73.35;101318.47;6410129;22;45386;-89
2022/05/19 17:53:57;;;;;;;;;6.00;4.00;;;;;28.51;73.47;101315.88;6410599;22;48711;-91
2022/05/19 17:56:29;;;;;;;;;5.33;4.33;;;;;28.49;73.91;101304.22;6409840;22;48117;-90
2022/05/19 17:58:56;;;;;;;;;4.33;4.33;;;;;28.42;74.08;101308.84;6412005;22;45359;-91
2022/05/19 18:01:22;;;;;;;;;3.33;3.33;;;;;28.32;73.75;101308.13;6376561;22;45790;-91
2022/05/19 18:03:49;;;;;;;;;3.67;3.67;;;;;28.26;74.07;101297.47;6413350;22;45470;-94
2022/05/19 18:06:16;;;;;;;;;8.00;8.00;;;;;28.17;74.35;101294.94;6382790;22;47250;-90
2022/05/19 18:08:42;;;;;;;;;8.33;7.67;;;;;28.01;74.76;101273.69;6352488;22;45738;-90
2022/05/19 18:11:09;;;;;;;;;4.00;4.00;;;;;27.89;74.69;101277.50;6408292;22;44962;-89
2022/05/19 18:13:40;;;;;;;;;3.67;3.67;;;;;27.85;74.98;101273.09;6410323;22;45278;-89
2022/05/19 18:18:51;;;;;;;;;4.33;4.00;;;;;27.68;75.70;101260.78;6413303;22;45106;-90
2022/05/19 18:21:17;;;;;;;;;3.33;3.00;;;;;27.56;76.13;101249.31;6411663;22;45360;-90
2022/05/19 18:23:43;;;;;;;;;4.33;3.67;;;;;27.39;76.61;101232.56;6408920;22;45241;-91
2022/05/19 18:26:11;;;;;;;;;4.67;4.67;;;;;27.40;76.56;101251.38;6383774;22;45276;-91
2022/05/19 18:28:38;;;;;;;;;4.00;4.00;;;;;27.25;76.80;101227.41;6383505;22;45772;-92
2022/05/19 18:31:04;;;;;;;;;4.00;4.00;;;;;27.21;76.90;101240.91;6377898;22;45203;-90
2022/05/19 18:33:31;;;;;;;;;3.00;3.00;;;;;27.17;77.55;101222.16;6404582;22;45510;-90
2022/05/19 18:35:57;;;;;;;;;3.00;3.00;;;;;27.12;77.49;101227.59;6383302;22;47431;-90
2022/05/19 18:38:23;;;;;;;;;3.00;3.00;;;;;27.11;77.52;101234.78;6408106;22;45692;-90
2022/05/19 18:46:20;;;;;;;;;4.00;3.33;;;;;26.98;77.84;101239.47;6405901;22;45633;-87
2022/05/19 18:48:45;;;;;;;;;2.33;2.33;;;;;26.92;78.35;101236.00;6399632;22;44739;-89
2022/05/19 18:51:11;;;;;;;;;3.33;3.33;;;;;26.87;78.58;101228.00;6398595;22;45252;-89
2022/05/19 18:53:38;;;;;;;;;4.00;3.00;;;;;26.83;78.83;101227.13;6399490;22;45311;-89
2022/05/19 18:56:06;;;;;;;;;3.33;3.33;;;;;26.75;78.89;101229.09;6405852;22;46403;-90
2022/05/19 18:58:37;;;;;;;;;4.33;2.33;;;;;26.67;79.03;101221.97;6401210;22;45501;-89
2022/05/19 19:01:05;;;;;;;;;2.67;2.67;;;;;26.62;79.45;101223.00;6401206;22;45336;-90
2022/05/19 19:03:31;;;;;;;;;3.33;3.33;;;;;26.55;79.36;101223.06;6401628;22;45360;-89
2022/05/19 19:05:56;;;;;;;;;3.00;3.00;;;;;26.50;79.62;101215.97;6406581;22;45314;-89
2022/05/19 19:08:27;;;;;;;;;3.67;2.33;;;;;26.48;79.49;101224.06;6373783;22;45250;-89
2022/05/19 19:10:56;;;;;;;;;2.67;2.67;;;;;26.47;80.00;101206.13;6377211;22;45267;-90
2022/05/19 19:13:24;;;;;;;;;3.00;3.00;;;;;26.43;80.23;101201.69;6402437;22;45215;-90
2022/05/19 19:15:49;;;;;;;;;2.00;2.00;;;;;26.40;80.47;101199.91;6408396;22;47261;-89
2022/05/19 19:18:14;;;;;;;;;3.33;3.33;;;;;26.37;80.39;101196.38;6411395;22;45620;-90
2022/05/19 19:20:40;;;;;;;;;5.33;4.00;;;;;26.33;80.50;101196.44;6410265;22;45296;-89
